createdAt,value
2024-02-16T00:01:07.048Z,2.20
2024-02-16T00:03:34.751Z,2.33
2024-02-16T00:06:02.600Z,2.28
2024-02-16T00:08:30.655Z,2.35
2024-02-16T00:10:58.336Z,2.53
2024-02-16T00:13:25.955Z,1.83
2024-02-16T00:15:53.544Z,2.55
2024-02-16T00:18:21.340Z,2.40
2024-02-16T00:20:49.215Z,2.10
2024-02-16T00:23:17.284Z,2.38
2024-02-16T00:25:44.920Z,1.65
2024-02-16T00:28:12.690Z,1.98
2024-02-16T00:30:40.436Z,2.05
2024-02-16T00:33:08.609Z,2.47
2024-02-16T00:35:36.297Z,2.20
2024-02-16T00:38:04.033Z,2.15
2024-02-16T00:40:33.909Z,1.88
2024-02-16T00:43:04.472Z,2.53
2024-02-16T00:45:32.324Z,2.20
2024-02-16T00:48:00.288Z,2.70
2024-02-16T00:50:28.342Z,2.30
2024-02-16T00:52:55.969Z,2.45
2024-02-16T00:55:23.624Z,2.10
2024-02-16T00:57:51.234Z,2.40
2024-02-16T01:00:20.676Z,2.67
2024-02-16T01:02:48.533Z,2.80
2024-02-16T01:05:18.868Z,2.70
2024-02-16T01:07:46.817Z,2.00
2024-02-16T01:10:14.659Z,2.08
2024-02-16T01:12:42.301Z,2.05
2024-02-16T01:15:10.248Z,2.20
2024-02-16T01:17:38.137Z,2.25
2024-02-16T01:20:07.065Z,1.98
2024-02-16T01:22:35.035Z,2.10
2024-02-16T01:25:02.968Z,2.38
2024-02-16T01:27:30.651Z,1.73
2024-02-16T01:29:58.402Z,2.30
2024-02-16T01:32:26.153Z,1.98
2024-02-16T01:34:53.998Z,2.10
2024-02-16T01:37:21.721Z,1.80
2024-02-16T01:39:49.479Z,2.28
2024-02-16T01:42:17.173Z,1.90
2024-02-16T01:44:44.879Z,2.10
2024-02-16T01:47:12.850Z,1.60
2024-02-16T01:49:40.891Z,1.80
2024-02-16T01:52:08.653Z,2.85
2024-02-16T01:54:36.436Z,2.50
2024-02-16T01:57:04.207Z,2.25
2024-02-16T01:59:31.835Z,2.20
2024-02-16T02:01:59.875Z,1.95
2024-02-16T02:04:28.957Z,2.50
2024-02-16T02:06:57.022Z,2.35
2024-02-16T02:09:24.728Z,1.88
2024-02-16T02:11:53.635Z,2.72
2024-02-16T02:14:27.019Z,2.28
2024-02-16T02:16:59.010Z,2.63
2024-02-16T02:19:27.555Z,2.03
2024-02-16T02:21:55.364Z,2.65
2024-02-16T02:24:23.078Z,2.70
2024-02-16T02:26:51.195Z,1.83
2024-02-16T02:29:18.808Z,2.03
2024-02-16T02:31:46.615Z,2.15
2024-02-16T02:34:15.331Z,1.83
2024-02-16T02:36:43.020Z,1.98
2024-02-16T02:39:11.307Z,2.40
2024-02-16T02:41:39.141Z,2.22
2024-02-16T02:44:06.739Z,1.65
2024-02-16T02:46:34.579Z,1.48
2024-02-16T02:49:03.298Z,2.33
2024-02-16T02:51:31.565Z,2.13
2024-02-16T02:53:59.317Z,2.45
2024-02-16T02:56:26.941Z,2.20
2024-02-16T02:58:54.526Z,2.40
2024-02-16T03:01:23.181Z,2.55
2024-02-16T03:03:50.938Z,2.58
2024-02-16T03:06:22.460Z,1.75
2024-02-16T03:08:50.260Z,1.83
2024-02-16T03:11:18.183Z,1.90
2024-02-16T03:13:45.891Z,1.98
2024-02-16T03:16:13.612Z,2.13
2024-02-16T03:18:41.309Z,1.63
2024-02-16T03:21:09.166Z,2.70
2024-02-16T03:23:38.336Z,2.17
2024-02-16T03:28:33.894Z,2.97
2024-02-16T03:31:02.482Z,2.53
2024-02-16T03:33:30.141Z,1.65
2024-02-16T03:35:57.829Z,2.45
2024-02-16T03:38:25.643Z,2.28
2024-02-16T03:40:53.440Z,2.00
2024-02-16T03:43:21.105Z,2.15
2024-02-16T03:45:48.817Z,2.55
2024-02-16T03:48:16.504Z,1.92
2024-02-16T03:50:44.190Z,1.95
2024-02-16T03:53:13.046Z,2.17
2024-02-16T03:55:40.689Z,2.03
2024-02-16T03:58:08.275Z,2.00
2024-02-16T04:00:36.039Z,2.15
2024-02-16T04:03:05.550Z,2.33
2024-02-16T04:05:34.924Z,1.73
2024-02-16T04:08:06.264Z,2.53
2024-02-16T04:10:37.560Z,2.08
2024-02-16T04:13:05.340Z,2.15
2024-02-16T04:15:33.186Z,2.13
2024-02-16T04:18:01.140Z,1.90
2024-02-16T04:20:28.825Z,2.63
2024-02-16T04:22:56.505Z,2.22
2024-02-16T04:25:24.713Z,1.42
2024-02-16T04:27:52.370Z,1.98
2024-02-16T04:30:20.013Z,1.90
2024-02-16T04:32:47.633Z,1.75
2024-02-16T04:35:15.964Z,1.75
2024-02-16T04:37:43.628Z,1.52
2024-02-16T04:40:13.539Z,1.60
2024-02-16T04:42:41.524Z,2.10
2024-02-16T04:45:09.465Z,2.15
2024-02-16T04:47:37.223Z,1.75
2024-02-16T04:50:04.981Z,1.65
2024-02-16T04:52:32.624Z,2.33
2024-02-16T04:55:00.253Z,1.63
2024-02-16T04:57:28.409Z,1.90
2024-02-16T04:59:56.108Z,2.05
2024-02-16T05:02:23.755Z,1.80
2024-02-16T05:04:51.404Z,2.35
2024-02-16T05:07:19.109Z,1.95
2024-02-16T05:09:46.742Z,1.58
2024-02-16T05:12:14.355Z,1.70
2024-02-16T05:14:42.668Z,1.60
2024-02-16T05:17:10.360Z,1.52
2024-02-16T05:19:38.018Z,1.50
2024-02-16T05:22:05.663Z,1.52
2024-02-16T05:24:33.335Z,1.83
2024-02-16T05:27:01.158Z,1.58
2024-02-16T05:29:28.876Z,1.70
2024-02-16T05:31:56.476Z,1.73
2024-02-16T05:34:24.314Z,1.98
2024-02-16T05:36:52.101Z,1.63
2024-02-16T05:39:28.189Z,2.13
2024-02-16T05:41:56.080Z,1.77
2024-02-16T05:44:23.696Z,1.95
2024-02-16T05:46:51.303Z,2.08
2024-02-16T05:49:19.087Z,2.10
2024-02-16T05:52:06.740Z,2.38
2024-02-16T05:57:06.856Z,2.05
2024-02-16T05:59:34.503Z,2.50
2024-02-16T06:02:02.706Z,2.10
2024-02-16T06:04:30.337Z,2.20
2024-02-16T06:06:58.128Z,2.80
2024-02-16T06:09:25.839Z,1.65
2024-02-16T06:11:53.440Z,2.20
2024-02-16T06:14:24.000Z,2.28
2024-02-16T06:17:03.845Z,2.15
2024-02-16T06:19:31.762Z,1.65
2024-02-16T06:22:00.080Z,1.80
2024-02-16T06:24:28.742Z,1.90
2024-02-16T06:26:57.705Z,2.05
2024-02-16T06:29:25.687Z,2.00
2024-02-16T06:31:53.647Z,1.75
2024-02-16T06:34:21.833Z,2.60
2024-02-16T06:36:49.862Z,1.90
2024-02-16T06:39:19.784Z,1.80
2024-02-16T06:41:48.188Z,2.03
2024-02-16T06:44:15.946Z,1.95
2024-02-16T06:46:44.835Z,1.52
2024-02-16T06:49:12.557Z,1.95
2024-02-16T06:51:41.000Z,1.70
2024-02-16T06:54:08.943Z,2.00
2024-02-16T06:56:37.008Z,2.00
2024-02-16T06:59:04.853Z,1.85
2024-02-16T07:01:33.193Z,1.77
2024-02-16T07:04:03.128Z,2.30
2024-02-16T07:06:31.138Z,1.98
2024-02-16T07:08:58.928Z,1.23
2024-02-16T07:11:26.656Z,1.80
2024-02-16T07:13:54.447Z,1.90
2024-02-16T07:16:22.425Z,1.85
2024-02-16T07:18:50.175Z,1.88
2024-02-16T07:21:20.151Z,3.53
2024-02-16T07:23:47.946Z,2.85
2024-02-16T07:26:15.545Z,3.22
2024-02-16T07:28:43.259Z,1.42
2024-02-16T07:31:12.230Z,1.65
2024-02-16T07:36:07.956Z,2.00
2024-02-16T07:38:35.578Z,2.03
2024-02-16T07:41:06.595Z,2.17
2024-02-16T07:43:36.231Z,1.33
2024-02-16T07:46:04.994Z,2.53
2024-02-16T07:48:32.862Z,2.08
2024-02-16T07:51:03.824Z,3.00
2024-02-16T07:53:32.849Z,3.00
2024-02-16T07:56:00.568Z,2.85
2024-02-16T07:58:28.274Z,4.38
2024-02-16T08:00:56.640Z,2.13
2024-02-16T08:03:24.494Z,2.45
2024-02-16T08:05:52.545Z,2.75
2024-02-16T08:08:21.451Z,3.20
2024-02-16T08:10:49.323Z,2.67
2024-02-16T08:13:16.990Z,1.83
2024-02-16T08:15:45.071Z,2.00
2024-02-16T08:18:14.414Z,3.25
2024-02-16T08:20:42.223Z,2.38
2024-02-16T08:23:09.895Z,2.00
2024-02-16T08:25:37.652Z,1.92
2024-02-16T08:28:06.046Z,1.27
2024-02-16T08:30:34.573Z,2.42
2024-02-16T08:33:02.373Z,1.95
2024-02-16T08:35:30.678Z,2.72
2024-02-16T08:37:58.425Z,2.13
2024-02-16T08:40:26.560Z,1.80
2024-02-16T08:42:54.277Z,1.70
2024-02-16T08:45:22.050Z,3.20
2024-02-16T08:47:52.735Z,2.53
2024-02-16T08:50:21.114Z,2.45
2024-02-16T08:52:49.018Z,2.95
2024-02-16T08:55:17.878Z,2.05
2024-02-16T08:57:46.566Z,2.22
2024-02-16T09:00:14.668Z,1.85
2024-02-16T09:02:42.382Z,2.50
2024-02-16T09:05:13.290Z,1.67
2024-02-16T09:07:41.042Z,2.22
2024-02-16T09:10:09.222Z,1.77
2024-02-16T09:12:36.942Z,2.10
2024-02-16T09:15:07.178Z,1.40
2024-02-16T09:17:34.911Z,1.77
2024-02-16T09:20:05.451Z,2.13
2024-02-16T09:25:04.387Z,1.67
2024-02-16T09:27:32.753Z,1.70
2024-02-16T09:30:00.622Z,1.40
2024-02-16T09:32:28.347Z,1.83
2024-02-16T09:34:57.395Z,1.60
2024-02-16T09:37:25.240Z,1.65
2024-02-16T09:39:52.848Z,1.58
2024-02-16T09:42:20.565Z,1.60
2024-02-16T09:44:48.950Z,1.60
2024-02-16T09:47:19.623Z,1.25
2024-02-16T09:49:49.442Z,1.55
2024-02-16T09:52:17.178Z,1.33
2024-02-16T09:54:44.796Z,1.23
2024-02-16T09:57:12.626Z,1.25
2024-02-16T09:59:40.315Z,1.65
2024-02-16T10:02:08.859Z,1.40
2024-02-16T10:04:37.522Z,1.05
2024-02-16T10:07:11.247Z,0.75
2024-02-16T10:09:43.935Z,1.20
2024-02-16T10:12:12.252Z,1.05
2024-02-16T10:14:42.378Z,0.80
2024-02-16T10:17:10.826Z,1.52
2024-02-16T10:19:43.698Z,0.93
2024-02-16T10:22:13.022Z,3.83
2024-02-16T10:24:42.000Z,1.08
2024-02-16T10:27:20.034Z,1.25
2024-02-16T10:29:53.099Z,3.70
2024-02-16T10:32:21.313Z,0.98
2024-02-16T10:34:49.397Z,4.35
2024-02-16T10:37:17.806Z,2.60
2024-02-16T10:39:47.537Z,1.13
2024-02-16T10:42:16.554Z,2.72
2024-02-16T10:44:45.917Z,1.10
2024-02-16T10:47:13.658Z,2.97
2024-02-16T10:49:41.527Z,4.63
2024-02-16T10:52:09.627Z,2.60
2024-02-16T10:54:38.901Z,3.40
2024-02-16T10:57:13.706Z,4.28
2024-02-16T10:59:49.058Z,1.40
2024-02-16T11:02:16.928Z,2.28
2024-02-16T11:04:47.431Z,5.30
2024-02-16T11:07:19.364Z,4.78
2024-02-16T11:09:47.739Z,2.17
2024-02-16T11:12:19.319Z,3.22
2024-02-16T11:14:48.339Z,5.30
2024-02-16T11:17:16.796Z,1.95
2024-02-16T11:19:45.124Z,1.75
2024-02-16T11:22:13.880Z,1.85
2024-02-16T11:27:09.815Z,6.13
2024-02-16T11:29:39.406Z,3.15
2024-02-16T11:32:07.676Z,1.65
2024-02-16T11:34:36.287Z,1.25
2024-02-16T11:39:32.697Z,0.95
2024-02-16T11:44:28.891Z,0.90
2024-02-16T11:46:56.796Z,0.90
2024-02-16T11:49:24.713Z,1.00
2024-02-16T11:51:53.340Z,0.98
2024-02-16T11:54:22.001Z,1.17
2024-02-16T11:56:52.414Z,1.00
2024-02-16T11:59:20.994Z,1.38
2024-02-16T12:01:53.345Z,1.10
2024-02-16T12:04:28.578Z,1.10
2024-02-16T12:07:05.298Z,1.13
2024-02-16T12:09:36.308Z,1.00
2024-02-16T12:12:04.724Z,1.30
2024-02-16T12:14:32.427Z,1.27
2024-02-16T12:17:00.227Z,1.00
2024-02-16T12:19:28.095Z,0.90
2024-02-16T12:21:58.468Z,0.98
2024-02-16T12:24:26.335Z,1.30
2024-02-16T12:26:54.300Z,0.82
2024-02-16T12:29:22.001Z,0.90
2024-02-16T12:31:50.671Z,0.90
2024-02-16T12:36:49.747Z,0.80
2024-02-16T12:39:18.822Z,1.15
2024-02-16T12:41:46.791Z,1.10
2024-02-16T12:44:14.553Z,0.93
2024-02-16T12:46:44.018Z,1.65
2024-02-16T12:49:11.811Z,1.10
2024-02-16T12:51:39.519Z,1.33
2024-02-16T12:54:07.252Z,1.45
2024-02-16T12:56:35.084Z,1.50
2024-02-16T12:59:03.248Z,1.00
2024-02-16T13:01:31.127Z,1.38
2024-02-16T13:03:58.786Z,1.20
2024-02-16T13:06:29.271Z,1.10
2024-02-16T13:08:57.529Z,1.00
2024-02-16T13:11:25.353Z,1.05
2024-02-16T13:13:53.093Z,1.08
2024-02-16T13:16:20.832Z,1.30
2024-02-16T13:18:48.676Z,1.00
2024-02-16T13:21:17.105Z,0.93
2024-02-16T13:23:44.861Z,0.95
2024-02-16T13:26:12.665Z,0.90
2024-02-16T13:28:40.384Z,0.90
2024-02-16T13:31:08.565Z,1.00
2024-02-16T13:33:36.968Z,0.95
2024-02-16T13:36:06.475Z,1.20
2024-02-16T13:38:34.286Z,1.38
2024-02-16T13:41:02.025Z,1.30
2024-02-16T13:43:29.767Z,1.30
2024-02-16T13:45:59.734Z,1.15
2024-02-16T13:48:27.622Z,1.05
2024-02-16T13:50:57.053Z,1.00
2024-02-16T13:53:25.288Z,0.90
2024-02-16T13:55:52.989Z,1.10
2024-02-16T13:58:20.668Z,0.98
2024-02-16T14:00:50.013Z,1.10
2024-02-16T14:03:18.338Z,1.00
2024-02-16T14:05:47.381Z,0.90
2024-02-16T14:08:16.262Z,0.98
2024-02-16T14:10:44.000Z,0.88
2024-02-16T14:13:11.611Z,1.10
2024-02-16T14:15:39.330Z,0.80
2024-02-16T14:18:14.226Z,1.20
2024-02-16T14:20:45.486Z,1.05
2024-02-16T14:23:13.216Z,1.20
2024-02-16T14:25:41.428Z,1.13
2024-02-16T14:28:09.142Z,1.42
2024-02-16T14:30:37.014Z,1.35
2024-02-16T14:33:06.294Z,1.50
2024-02-16T14:35:37.740Z,1.10
2024-02-16T14:38:06.469Z,2.03
2024-02-16T14:40:34.327Z,1.55
2024-02-16T14:43:03.233Z,1.23
2024-02-16T14:45:31.218Z,4.05
2024-02-16T14:47:59.646Z,1.65
2024-02-16T14:50:28.266Z,1.33
2024-02-16T14:52:56.483Z,1.67
2024-02-16T14:55:24.629Z,1.50
2024-02-16T14:57:53.196Z,1.50
2024-02-16T15:00:21.494Z,1.45
2024-02-16T15:02:52.236Z,1.88
2024-02-16T15:05:22.128Z,2.10
2024-02-16T15:07:51.313Z,1.40
2024-02-16T15:10:19.316Z,1.52
2024-02-16T15:12:47.210Z,1.20
2024-02-16T15:15:15.594Z,1.33
2024-02-16T15:17:43.742Z,1.65
2024-02-16T15:20:11.864Z,2.38
2024-02-16T15:22:48.208Z,3.22
2024-02-16T15:25:23.022Z,2.10
2024-02-16T15:27:52.849Z,2.80
2024-02-16T15:30:21.460Z,1.65
2024-02-16T15:32:53.090Z,1.88
2024-02-16T15:35:24.358Z,1.77
2024-02-16T15:37:53.688Z,1.52
2024-02-16T15:40:21.741Z,1.92
2024-02-16T15:43:02.729Z,1.65
2024-02-16T15:47:58.360Z,1.48
2024-02-16T15:50:27.017Z,1.58
2024-02-16T15:52:54.808Z,1.45
2024-02-16T15:55:22.441Z,1.38
2024-02-16T15:57:50.177Z,1.67
2024-02-16T16:00:18.174Z,1.60
2024-02-16T16:02:45.851Z,1.33
2024-02-16T16:05:13.469Z,1.17
2024-02-16T16:07:44.559Z,1.20
2024-02-16T16:10:13.309Z,1.48
2024-02-16T16:12:41.657Z,1.60
2024-02-16T16:15:09.616Z,3.58
2024-02-16T16:17:37.293Z,2.35
2024-02-16T16:20:05.197Z,1.85
2024-02-16T16:22:32.864Z,2.50
2024-02-16T16:25:00.447Z,2.40
2024-02-16T16:27:28.605Z,1.92
2024-02-16T16:29:56.621Z,1.27
2024-02-16T16:32:24.279Z,1.50
2024-02-16T16:34:53.732Z,1.55
2024-02-16T16:37:21.483Z,1.33
2024-02-16T16:39:49.095Z,1.73
2024-02-16T16:42:16.752Z,1.40
2024-02-16T16:44:44.454Z,1.58
2024-02-16T16:47:13.561Z,1.85
2024-02-16T16:49:42.290Z,1.42
2024-02-16T16:57:05.661Z,1.52
2024-02-16T16:59:34.240Z,1.50
2024-02-16T17:02:06.166Z,1.70
2024-02-16T17:04:34.186Z,1.67
2024-02-16T17:07:02.353Z,2.10
2024-02-16T17:09:30.201Z,1.88
2024-02-16T17:11:59.002Z,1.55
2024-02-16T17:14:26.673Z,2.03
2024-02-16T17:16:54.771Z,1.75
2024-02-16T17:19:22.472Z,2.20
2024-02-16T17:21:50.289Z,1.83
2024-02-16T17:24:18.038Z,2.10
2024-02-16T17:26:47.942Z,2.17
2024-02-16T17:29:15.544Z,1.73
2024-02-16T17:31:43.162Z,2.33
2024-02-16T17:34:10.927Z,1.80
2024-02-16T17:36:38.701Z,1.67
2024-02-16T17:39:06.472Z,1.50
2024-02-16T17:41:34.471Z,1.42
2024-02-16T17:44:02.632Z,1.90
2024-02-16T17:46:30.498Z,1.40
2024-02-16T17:48:58.511Z,1.70
2024-02-16T17:51:26.283Z,1.45
2024-02-16T17:53:54.024Z,1.50
2024-02-16T17:56:21.899Z,1.45
2024-02-16T17:58:49.617Z,1.45
2024-02-16T18:01:17.226Z,1.50
2024-02-16T18:03:45.749Z,1.60
2024-02-16T18:06:13.739Z,1.70
2024-02-16T18:08:41.519Z,1.95
2024-02-16T18:11:09.170Z,1.50
2024-02-16T18:13:36.856Z,1.50
2024-02-16T18:16:04.915Z,1.98
2024-02-16T18:18:32.564Z,1.70
2024-02-16T18:21:00.379Z,1.77
2024-02-16T18:23:29.858Z,1.88
2024-02-16T18:25:57.517Z,1.83
2024-02-16T18:28:29.894Z,2.00
2024-02-16T18:31:01.987Z,1.73
2024-02-16T18:33:30.703Z,1.83
2024-02-16T18:40:53.609Z,2.03
2024-02-16T18:43:21.211Z,2.15
2024-02-16T18:45:48.868Z,1.75
2024-02-16T18:48:17.812Z,1.88
2024-02-16T18:50:45.648Z,2.20
2024-02-16T18:53:13.489Z,2.25
2024-02-16T18:55:46.072Z,1.90
2024-02-16T18:58:13.938Z,2.17
2024-02-16T19:00:41.620Z,2.28
2024-02-16T19:03:09.497Z,2.05
2024-02-16T19:05:37.189Z,2.15
2024-02-16T19:08:06.375Z,1.77
2024-02-16T19:10:35.898Z,1.95
2024-02-16T19:13:03.502Z,2.28
2024-02-16T19:15:33.615Z,2.92
2024-02-16T19:18:01.883Z,2.15
2024-02-16T19:20:29.584Z,2.10
2024-02-16T19:22:57.176Z,2.83
2024-02-16T19:25:24.830Z,3.10
2024-02-16T19:27:53.157Z,2.45
2024-02-16T19:30:24.802Z,2.50
2024-02-16T19:32:53.238Z,2.22
2024-02-16T19:35:23.483Z,1.80
2024-02-16T19:37:51.271Z,2.15
2024-02-16T19:40:19.211Z,1.90
2024-02-16T19:42:47.596Z,2.50
2024-02-16T19:45:25.351Z,2.25
2024-02-16T19:47:56.918Z,2.33
2024-02-16T19:50:25.875Z,2.97
2024-02-16T19:52:53.837Z,2.47
2024-02-16T19:55:22.062Z,2.58
2024-02-16T19:57:51.210Z,2.88
2024-02-16T20:00:20.094Z,2.33
2024-02-16T20:05:19.160Z,2.80
2024-02-16T20:07:47.658Z,3.28
2024-02-16T20:10:16.606Z,3.28
2024-02-16T20:15:12.429Z,3.25
2024-02-16T20:17:40.397Z,3.50
2024-02-16T20:20:09.832Z,3.95
2024-02-16T20:22:37.592Z,3.08
2024-02-16T20:25:07.314Z,3.45
2024-02-16T20:27:35.863Z,3.70
2024-02-16T20:30:04.355Z,3.67
2024-02-16T20:32:33.043Z,4.30
2024-02-16T20:35:05.438Z,3.53
2024-02-16T20:37:33.759Z,3.60
2024-02-16T20:40:01.993Z,3.30
2024-02-16T20:42:29.737Z,4.05
2024-02-16T20:44:57.869Z,4.38
2024-02-16T20:47:25.746Z,4.07
2024-02-16T20:49:53.387Z,3.83
2024-02-16T20:52:21.750Z,3.80
2024-02-16T20:54:49.446Z,3.70
2024-02-16T20:57:17.176Z,4.20
2024-02-16T20:59:44.805Z,4.38
2024-02-16T21:02:12.405Z,3.63
2024-02-16T21:04:40.799Z,4.43
2024-02-16T21:07:08.567Z,3.85
2024-02-16T21:09:36.895Z,3.90
2024-02-16T21:12:04.708Z,4.93
2024-02-16T21:14:32.316Z,3.88
2024-02-16T21:17:00.001Z,3.22
2024-02-16T21:19:27.713Z,3.53
2024-02-16T21:21:55.454Z,4.63
2024-02-16T21:24:23.206Z,3.97
2024-02-16T21:26:52.040Z,3.97
2024-02-16T21:29:20.059Z,3.67
2024-02-16T21:31:47.729Z,3.85
2024-02-16T21:34:16.095Z,4.35
2024-02-16T21:36:44.690Z,3.78
2024-02-16T21:39:12.849Z,4.00
2024-02-16T21:41:40.765Z,2.88
2024-02-16T21:44:08.586Z,3.40
2024-02-16T21:46:39.200Z,3.22
2024-02-16T21:49:10.337Z,2.47
2024-02-16T21:51:38.748Z,3.63
2024-02-16T21:54:07.687Z,3.05
2024-02-16T21:56:35.877Z,3.00
2024-02-16T21:59:03.530Z,2.83
2024-02-16T22:01:34.248Z,2.75
2024-02-16T22:04:03.947Z,2.95
2024-02-16T22:06:32.157Z,3.80
2024-02-16T22:09:00.148Z,2.58
2024-02-16T22:11:29.285Z,2.65
2024-02-16T22:13:57.518Z,3.05
2024-02-16T22:16:25.273Z,2.70
2024-02-16T22:18:53.316Z,3.10
2024-02-16T22:21:24.406Z,2.75
2024-02-16T22:23:57.989Z,3.15
2024-02-16T22:26:26.046Z,2.47
2024-02-16T22:28:53.740Z,2.55
2024-02-16T22:31:23.944Z,3.08
2024-02-16T22:33:53.224Z,2.05
2024-02-16T22:36:21.071Z,2.00
2024-02-16T22:38:48.714Z,1.67
2024-02-16T22:41:18.990Z,2.38
2024-02-16T22:43:46.618Z,1.40
2024-02-16T22:46:14.273Z,1.40
2024-02-16T22:48:42.008Z,1.48
2024-02-16T22:51:10.874Z,1.10
2024-02-16T22:53:38.496Z,1.13
2024-02-16T22:56:06.294Z,1.33
2024-02-16T22:58:33.865Z,1.50
2024-02-16T23:01:01.861Z,1.50
2024-02-16T23:03:29.679Z,1.50
2024-02-16T23:06:00.605Z,1.70
2024-02-16T23:08:30.991Z,1.55
2024-02-16T23:10:59.074Z,1.92
2024-02-16T23:13:26.962Z,1.17
2024-02-16T23:15:55.237Z,1.80
2024-02-16T23:18:23.055Z,1.27
2024-02-16T23:20:50.838Z,1.17
2024-02-16T23:23:18.597Z,1.25
2024-02-16T23:25:46.769Z,1.67
2024-02-16T23:28:15.129Z,1.95
2024-02-16T23:30:43.060Z,1.10
2024-02-16T23:33:14.029Z,1.27
2024-02-16T23:35:41.804Z,1.45
2024-02-16T23:38:10.446Z,1.25
2024-02-16T23:40:41.319Z,1.40
2024-02-16T23:43:12.730Z,1.55
2024-02-16T23:45:40.489Z,1.80
2024-02-16T23:48:08.588Z,1.35
2024-02-16T23:50:36.440Z,1.30
2024-02-16T23:53:04.073Z,1.40
2024-02-16T23:55:31.645Z,2.25
2024-02-16T23:57:59.255Z,1.40
